Time;durP1;ratioP1;P1;durP2;ratioP2;P2;SDS_P1;SDS_P2;PMS_P1;PMS_P2;Temp;Humidity;BMP_temperature;BMP_pressure;BME280_temperature;BME280_humidity;BME280_pressure;Samples;Min_cycle;Max_cycle;Signal;HPM_P1;HPM_P2
2023/01/01 00:01:07;;;;;;;36.13;30.37;;;;;;;12.89;87.01;98363.09;5034629;28;20229;-70
2023/01/01 00:03:33;;;;;;;30.07;25.20;;;;;;;13.01;85.75;98357.81;5034578;28;20668;-70
2023/01/01 00:06:04;;;;;;;33.50;24.67;;;;;;;13.02;85.72;98364.81;5035490;28;20213;-70
2023/01/01 00:08:30;;;;;;;32.17;25.87;;;;;;;13.00;86.35;98362.38;5035430;28;20204;-70
2023/01/01 00:11:00;;;;;;;25.40;22.13;;;;;;;13.06;85.23;98364.13;5034800;28;20233;-70
2023/01/01 00:13:26;;;;;;;31.27;22.10;;;;;;;13.02;85.81;98370.16;5034847;28;20216;-70
2023/01/01 00:15:52;;;;;;;25.53;21.27;;;;;;;13.09;85.18;98379.69;5034697;28;20205;-70
2023/01/01 00:18:19;;;;;;;24.97;22.13;;;;;;;13.10;85.23;98378.66;5034129;28;20287;-70
2023/01/01 00:20:45;;;;;;;29.00;23.10;;;;;;;12.95;86.53;98372.88;5034019;28;20209;-70
2023/01/01 00:23:12;;;;;;;24.90;22.20;;;;;;;12.98;86.15;98376.97;5034656;28;20237;-70
2023/01/01 00:25:41;;;;;;;21.77;18.43;;;;;;;13.02;85.84;98373.63;5034226;28;20577;-70
2023/01/01 00:28:08;;;;;;;22.63;18.03;;;;;;;13.04;85.52;98366.22;5034401;28;20206;-70
2023/01/01 00:30:35;;;;;;;23.33;17.20;;;;;;;13.01;86.00;98365.84;5034436;28;20212;-70
2023/01/01 00:33:01;;;;;;;21.77;15.80;;;;;;;12.97;86.25;98368.16;5034321;28;20669;-70
2023/01/01 00:35:28;;;;;;;16.43;13.87;;;;;;;12.95;86.31;98361.38;5034437;28;20217;-70
2023/01/01 00:37:55;;;;;;;16.80;13.77;;;;;;;12.90;86.94;98363.91;5034021;28;20214;-69
2023/01/01 00:40:21;;;;;;;17.10;11.73;;;;;;;13.03;85.75;98363.78;5033811;28;20665;-69
2023/01/01 00:42:48;;;;;;;13.73;9.73;;;;;;;13.08;85.20;98366.56;5034012;28;20320;-70
2023/01/01 00:45:14;;;;;;;10.13;9.03;;;;;;;13.18;84.62;98373.00;5033859;28;20209;-70
2023/01/01 00:47:41;;;;;;;10.53;9.03;;;;;;;13.10;85.27;98364.47;5033967;28;20216;-70
2023/01/01 00:50:07;;;;;;;9.57;7.90;;;;;;;13.23;84.09;98380.31;5034075;28;20571;-69
2023/01/01 00:52:33;;;;;;;9.10;7.87;;;;;;;13.41;82.86;98372.22;5033606;28;20240;-70
2023/01/01 00:55:00;;;;;;;9.00;7.80;;;;;;;13.27;83.77;98379.63;5033587;28;20227;-69
2023/01/01 00:57:26;;;;;;;9.20;7.30;;;;;;;13.28;83.60;98383.09;5034052;28;20230;-70
2023/01/01 00:59:53;;;;;;;6.97;6.27;;;;;;;13.20;84.12;98389.59;5033982;28;20216;-69
2023/01/01 01:02:19;;;;;;;6.97;6.23;;;;;;;13.46;82.00;98378.50;5033778;28;20226;-69
2023/01/01 01:04:45;;;;;;;7.50;6.33;;;;;;;13.34;82.68;98375.00;5033946;28;20575;-70
2023/01/01 01:07:12;;;;;;;7.23;6.53;;;;;;;13.39;82.24;98382.34;5033857;28;20220;-70
2023/01/01 01:09:38;;;;;;;7.07;6.30;;;;;;;13.34;82.63;98372.31;5033899;28;20215;-70
2023/01/01 01:12:04;;;;;;;8.10;6.47;;;;;;;13.22;83.25;98368.00;5033777;28;20228;-70
2023/01/01 01:14:31;;;;;;;7.43;6.67;;;;;;;13.20;83.45;98364.75;5033563;28;20202;-70
2023/01/01 01:16:57;;;;;;;8.10;7.10;;;;;;;13.14;83.17;98361.13;5033385;28;20221;-70
2023/01/01 01:19:24;;;;;;;9.33;6.90;;;;;;;13.21;83.20;98375.19;5033692;28;20213;-70
2023/01/01 01:21:51;;;;;;;8.17;6.63;;;;;;;13.04;83.92;98374.22;5033264;28;20693;-70
2023/01/01 01:24:18;;;;;;;9.27;6.93;;;;;;;12.95;84.66;98385.41;5033598;28;20259;-70
2023/01/01 01:26:44;;;;;;;8.80;7.23;;;;;;;12.84;85.16;98378.16;5033461;28;20553;-70
2023/01/01 01:29:11;;;;;;;8.67;7.10;;;;;;;12.86;85.62;98376.06;5033407;28;20312;-70
2023/01/01 01:31:37;;;;;;;8.67;7.17;;;;;;;12.81;85.78;98376.75;5033209;28;20221;-69
2023/01/01 01:34:04;;;;;;;9.00;7.20;;;;;;;12.73;86.20;98374.41;5034080;28;20201;-70
2023/01/01 01:36:30;;;;;;;10.40;7.70;;;;;;;12.74;85.86;98384.03;5033102;28;20206;-70
2023/01/01 01:38:57;;;;;;;10.07;7.93;;;;;;;12.62;86.55;98377.00;5033752;28;20206;-70
2023/01/01 01:41:26;;;;;;;7.97;7.17;;;;;;;12.45;87.62;98376.78;5033455;28;20255;-70
2023/01/01 01:43:57;;;;;;;9.17;8.03;;;;;;;12.36;88.38;98375.47;5033348;28;20237;-70
2023/01/01 01:46:30;;;;;;;11.47;10.27;;;;;;;12.35;88.68;98379.16;5033365;28;20213;-70
2023/01/01 01:49:00;;;;;;;9.53;8.43;;;;;;;12.32;89.07;98378.78;5033463;28;20204;-70
2023/01/01 01:51:33;;;;;;;12.53;8.60;;;;;;;12.24;89.52;98379.06;5032997;28;20235;-70
2023/01/01 01:54:05;;;;;;;12.43;8.90;;;;;;;12.01;91.45;98381.56;5033321;28;20199;-70
2023/01/01 01:57:03;;;;;;;13.37;9.80;;;;;;;11.93;92.17;98388.00;5033188;28;20563;-70
2023/01/01 01:59:33;;;;;;;11.07;9.13;;;;;;;11.98;92.05;98380.16;5020005;28;20208;-70
2023/01/01 02:02:00;;;;;;;10.63;8.30;;;;;;;11.84;93.17;98383.97;5032949;28;20225;-70
2023/01/01 02:04:27;;;;;;;10.63;8.50;;;;;;;11.97;92.60;98383.84;5033509;28;20209;-70
2023/01/01 02:06:54;;;;;;;11.63;8.50;;;;;;;11.88;93.03;98390.50;5033557;28;20216;-70
2023/01/01 02:09:22;;;;;;;9.10;8.10;;;;;;;11.79;93.82;98390.97;5033054;28;20208;-70
2023/01/01 02:11:48;;;;;;;9.83;7.83;;;;;;;11.75;93.89;98387.94;5032694;28;20712;-70
2023/01/01 02:14:14;;;;;;;10.13;8.27;;;;;;;11.76;94.19;98380.78;5033104;28;20563;-69
2023/01/01 02:17:01;;;;;;;10.73;8.60;;;;;;;11.48;96.56;98383.84;5033586;28;20220;-70
2023/01/01 02:19:58;;;;;;;10.63;9.53;;;;;;;11.53;96.16;98388.53;5033547;28;20193;-70
2023/01/01 02:22:56;;;;;;;10.30;8.57;;;;;;;11.34;97.92;98395.63;5031124;28;20231;-70
2023/01/01 02:25:56;;;;;;;11.83;9.20;;;;;;;11.35;97.83;98391.91;5032931;28;20278;-70
2023/01/01 02:28:37;;;;;;;11.30;10.10;;;;;;;11.41;96.72;98391.06;5033025;28;20529;-69
2023/01/01 02:31:04;;;;;;;10.70;9.47;;;;;;;11.35;97.45;98393.78;5032917;28;20314;-70
2023/01/01 02:33:31;;;;;;;11.50;9.93;;;;;;;11.60;96.23;98386.66;5032891;28;20214;-69
2023/01/01 02:36:02;;;;;;;13.50;9.83;;;;;;;11.32;97.58;98390.50;5032510;28;20670;-69
2023/01/01 02:38:39;;;;;;;12.53;9.43;;;;;;;11.42;96.94;98383.88;5033144;28;20206;-70
2023/01/01 02:41:10;;;;;;;11.17;8.27;;;;;;;11.42;96.85;98389.22;5034701;28;20230;-70
2023/01/01 02:43:38;;;;;;;11.17;8.50;;;;;;;11.42;96.90;98397.19;5036277;28;20575;-70
2023/01/01 02:46:07;;;;;;;9.97;8.33;;;;;;;11.28;98.11;98388.50;5035304;28;20207;-70
2023/01/01 02:48:50;;;;;;;9.57;8.57;;;;;;;11.23;98.77;98397.13;5036434;28;20214;-70
2023/01/01 02:51:35;;;;;;;12.97;10.13;;;;;;;11.27;98.02;98394.88;5036454;28;20592;-70
2023/01/01 02:54:19;;;;;;;12.83;10.33;;;;;;;11.12;99.74;98391.66;5036251;28;20560;-70
2023/01/01 02:57:04;;;;;;;11.83;10.17;;;;;;;11.12;99.70;98398.84;5036086;28;20210;-70
2023/01/01 03:02:57;;;;;;;10.33;8.30;;;;;;;11.02;100.00;98420.59;5036185;28;20340;-69
2023/01/01 03:05:34;;;;;;;11.87;7.60;;;;;;;11.08;99.61;98409.06;5036176;28;20196;-70
2023/01/01 03:08:14;;;;;;;9.20;7.77;;;;;;;11.11;99.31;98400.69;5036172;28;20190;-70
2023/01/01 03:10:46;;;;;;;10.87;8.70;;;;;;;11.04;100.00;98392.72;5035464;28;20198;-70
2023/01/01 03:13:38;;;;;;;12.23;9.17;;;;;;;10.97;100.00;98399.13;5035808;28;20186;-70
2023/01/01 03:16:17;;;;;;;12.77;9.90;;;;;;;10.98;100.00;98409.56;5035624;28;20650;-70
2023/01/01 03:18:46;;;;;;;19.83;12.93;;;;;;;10.94;100.00;98410.19;5036041;28;20577;-70
2023/01/01 03:21:16;;;;;;;14.10;11.50;;;;;;;10.83;100.00;98418.84;5035250;28;20241;-69
2023/01/01 03:23:49;;;;;;;14.90;12.80;;;;;;;11.02;100.00;98428.56;5035875;28;20257;-70
2023/01/01 03:26:17;;;;;;;17.17;13.97;;;;;;;10.84;100.00;98415.97;5035848;28;20275;-70
2023/01/01 03:28:51;;;;;;;18.27;13.70;;;;;;;10.77;100.00;98422.34;5035784;28;20210;-69
2023/01/01 03:31:21;;;;;;;19.20;14.20;;;;;;;10.78;100.00;98423.97;5035830;28;20722;-70
2023/01/01 03:33:53;;;;;;;14.17;12.33;;;;;;;10.81;100.00;98436.84;5035962;28;20194;-70
2023/01/01 03:36:24;;;;;;;15.03;11.80;;;;;;;10.79;100.00;98444.22;5035078;28;20201;-70
2023/01/01 03:39:00;;;;;;;13.77;11.80;;;;;;;10.69;100.00;98454.50;5035259;28;20194;-70
2023/01/01 03:41:36;;;;;;;13.73;10.37;;;;;;;10.61;100.00;98446.75;5035966;28;20268;-70
2023/01/01 03:44:32;;;;;;;12.07;9.53;;;;;;;10.54;100.00;98467.22;5035109;28;20210;-70
2023/01/01 03:46:59;;;;;;;9.23;7.13;;;;;;;10.74;100.00;98457.34;5034955;28;20198;-69
2023/01/01 03:49:27;;;;;;;8.30;7.10;;;;;;;10.69;100.00;98457.94;5035268;28;20206;-69
2023/01/01 03:52:02;;;;;;;7.43;6.40;;;;;;;10.64;100.00;98463.09;5034381;28;20222;-70
2023/01/01 03:54:41;;;;;;;6.87;5.30;;;;;;;10.80;100.00;98457.31;5035026;28;20185;-70
2023/01/01 03:57:24;;;;;;;7.83;5.60;;;;;;;10.86;100.00;98445.81;5035230;28;20194;-70
2023/01/01 04:00:15;;;;;;;7.47;5.67;;;;;;;10.88;100.00;98445.63;5035130;28;20280;-70
2023/01/01 04:03:01;;;;;;;6.93;5.27;;;;;;;11.07;99.47;98446.56;5034467;28;20226;-69
2023/01/01 04:05:30;;;;;;;6.00;5.40;;;;;;;11.09;98.79;98443.47;5034650;28;20193;-69
2023/01/01 04:08:02;;;;;;;5.70;4.47;;;;;;;10.90;100.00;98446.22;5034633;28;20229;-70
2023/01/01 04:10:31;;;;;;;7.10;4.90;;;;;;;10.92;100.00;98438.84;5034534;28;20191;-70
2023/01/01 04:12:58;;;;;;;6.03;4.90;;;;;;;10.92;100.00;98436.19;5033393;28;20229;-70
2023/01/01 04:15:26;;;;;;;7.23;4.97;;;;;;;10.82;100.00;98439.28;5034530;28;20217;-70
2023/01/01 04:17:54;;;;;;;5.73;4.37;;;;;;;11.07;99.91;98439.38;5034755;28;20202;-70
2023/01/01 04:20:21;;;;;;;6.97;4.63;;;;;;;10.99;100.00;98436.97;5034360;28;20202;-70
2023/01/01 04:22:47;;;;;;;6.67;4.80;;;;;;;10.98;100.00;98424.69;5034108;28;20226;-70
2023/01/01 04:25:16;;;;;;;5.30;4.20;;;;;;;11.32;97.65;98438.41;5035182;28;20217;-70
2023/01/01 04:27:43;;;;;;;5.43;4.20;;;;;;;11.47;96.31;98432.81;5034571;28;20212;-70
2023/01/01 04:30:12;;;;;;;5.70;4.30;;;;;;;11.40;96.59;98434.69;5034502;28;20206;-70
2023/01/01 04:32:39;;;;;;;5.23;3.93;;;;;;;11.66;94.30;98429.19;5034549;28;20697;-69
2023/01/01 04:35:07;;;;;;;5.13;3.67;;;;;;;11.54;95.07;98427.44;5034263;28;20304;-70
2023/01/01 04:37:37;;;;;;;6.13;3.93;;;;;;;11.60;94.50;98426.59;5034193;28;20206;-69
2023/01/01 04:40:04;;;;;;;4.57;3.90;;;;;;;11.78;93.44;98426.66;5034033;28;20220;-70
2023/01/01 04:42:31;;;;;;;4.40;4.00;;;;;;;11.70;94.02;98432.28;5033996;28;20225;-70
2023/01/01 04:44:57;;;;;;;5.73;4.13;;;;;;;11.89;92.39;98421.44;5034002;28;20229;-70
2023/01/01 04:47:25;;;;;;;5.67;4.10;;;;;;;11.79;93.10;98414.97;5034090;28;20206;-70
2023/01/01 04:49:52;;;;;;;5.23;4.17;;;;;;;12.04;91.07;98427.25;5034125;28;20213;-70
2023/01/01 04:52:18;;;;;;;5.70;3.77;;;;;;;12.21;89.82;98417.66;5033653;28;20226;-70
2023/01/01 04:54:45;;;;;;;3.63;3.33;;;;;;;12.10;90.83;98426.38;5033949;28;20216;-69
2023/01/01 04:57:11;;;;;;;4.23;3.47;;;;;;;12.22;89.65;98429.97;5034086;28;20212;-70
2023/01/01 04:59:38;;;;;;;8.37;3.53;;;;;;;12.59;86.96;98431.63;5033833;28;20689;-69
2023/01/01 05:02:04;;;;;;;4.43;3.90;;;;;;;12.63;86.65;98435.47;5034587;28;20303;-69
2023/01/01 05:04:30;;;;;;;6.77;3.83;;;;;;;12.42;87.96;98437.72;5032734;28;20589;-70
2023/01/01 05:06:57;;;;;;;7.60;3.37;;;;;;;12.50;87.51;98432.94;5033879;28;20207;-69
2023/01/01 05:09:23;;;;;;;5.77;3.60;;;;;;;12.51;87.23;98437.22;5034300;28;20490;-70
2023/01/01 05:11:50;;;;;;;4.00;3.30;;;;;;;12.39;87.98;98441.66;5033770;28;20235;-69
2023/01/01 05:14:16;;;;;;;4.20;3.60;;;;;;;12.56;87.08;98444.56;5033735;28;20203;-70
2023/01/01 05:16:42;;;;;;;5.00;3.50;;;;;;;12.47;87.48;98441.38;5033720;28;20215;-70
2023/01/01 05:19:10;;;;;;;5.40;3.20;;;;;;;12.47;87.10;98445.88;5033577;28;20207;-70
2023/01/01 05:21:39;;;;;;;4.90;3.00;;;;;;;12.57;86.20;98452.34;5033117;28;20243;-69
2023/01/01 05:24:08;;;;;;;3.37;3.07;;;;;;;12.43;87.50;98450.84;5033501;28;20235;-70
2023/01/01 05:26:40;;;;;;;4.00;2.77;;;;;;;12.37;88.43;98457.06;5033314;28;20208;-70
2023/01/01 05:29:06;;;;;;;3.80;3.40;;;;;;;12.28;88.60;98454.91;5034206;28;20193;-69
2023/01/01 05:31:35;;;;;;;4.37;3.33;;;;;;;12.10;89.59;98463.69;5033442;28;20231;-70
2023/01/01 05:34:03;;;;;;;5.87;4.03;;;;;;;12.05;89.79;98455.53;5033584;28;20205;-69
2023/01/01 05:36:32;;;;;;;4.67;3.43;;;;;;;11.85;91.55;98459.41;5033136;28;20573;-69
2023/01/01 05:39:00;;;;;;;5.27;3.90;;;;;;;11.89;91.01;98457.94;5033388;28;20208;-70
2023/01/01 05:41:26;;;;;;;4.83;3.93;;;;;;;11.87;91.04;98468.81;5033271;28;20226;-70
2023/01/01 05:43:53;;;;;;;4.70;3.83;;;;;;;11.80;91.60;98468.03;5033295;28;20306;-69
2023/01/01 05:46:24;;;;;;;6.17;3.40;;;;;;;11.79;91.92;98468.22;5033402;28;20210;-70
2023/01/01 05:48:53;;;;;;;3.97;3.57;;;;;;;11.74;92.08;98466.22;5033319;28;20195;-69
2023/01/01 05:51:24;;;;;;;5.13;3.77;;;;;;;11.80;91.81;98464.56;5033204;28;20226;-70
2023/01/01 05:53:52;;;;;;;3.73;3.40;;;;;;;11.75;92.12;98473.19;5033199;28;20212;-70
2023/01/01 05:56:18;;;;;;;5.70;3.50;;;;;;;11.84;91.55;98471.09;5033413;28;20205;-70
2023/01/01 05:58:46;;;;;;;4.07;3.13;;;;;;;11.76;92.12;98466.81;5033400;28;20210;-70
2023/01/01 06:01:21;;;;;;;4.97;3.37;;;;;;;11.85;91.21;98470.06;5032911;28;20697;-69
2023/01/01 06:03:48;;;;;;;4.67;2.83;;;;;;;11.83;91.10;98474.75;5032953;28;20557;-70
2023/01/01 06:06:17;;;;;;;3.87;3.37;;;;;;;11.74;91.89;98471.56;5033183;28;20209;-69
2023/01/01 06:08:50;;;;;;;3.67;3.13;;;;;;;11.77;91.72;98471.13;5033030;28;20218;-69
2023/01/01 06:11:16;;;;;;;3.60;3.20;;;;;;;11.86;90.92;98474.34;5033093;28;20233;-70
2023/01/01 06:13:43;;;;;;;4.63;3.10;;;;;;;11.83;91.47;98472.94;5032868;28;20213;-69
2023/01/01 06:16:10;;;;;;;5.03;3.30;;;;;;;11.86;90.53;98487.66;5035290;28;20238;-69
2023/01/01 06:18:37;;;;;;;4.80;3.37;;;;;;;11.82;90.66;98481.97;5036814;28;20206;-69
2023/01/01 06:21:10;;;;;;;5.17;3.30;;;;;;;11.85;90.61;98494.03;5036557;28;20231;-70
2023/01/01 06:23:36;;;;;;;3.77;3.03;;;;;;;11.62;91.99;98489.25;5036664;28;20221;-70
2023/01/01 06:26:08;;;;;;;5.37;3.60;;;;;;;11.69;91.76;98498.03;5037009;28;20570;-70
2023/01/01 06:28:35;;;;;;;5.20;3.60;;;;;;;11.65;91.83;98502.16;5036972;28;20210;-70
2023/01/01 06:31:03;;;;;;;5.20;3.20;;;;;;;11.59;92.55;98503.00;5037415;28;20240;-70
2023/01/01 06:33:31;;;;;;;4.00;3.20;;;;;;;11.69;92.06;98495.38;5036864;28;20206;-70
2023/01/01 06:35:57;;;;;;;4.57;3.30;;;;;;;11.55;92.59;98504.44;5036498;28;20203;-70
2023/01/01 06:38:24;;;;;;;3.83;3.27;;;;;;;11.91;90.22;98496.66;5036307;28;20209;-69
2023/01/01 06:41:01;;;;;;;3.63;3.23;;;;;;;11.79;91.02;98501.03;5036521;28;20233;-70
2023/01/01 06:43:31;;;;;;;4.17;3.23;;;;;;;11.88;90.42;98506.91;5036506;28;20210;-70
2023/01/01 06:46:01;;;;;;;3.33;3.03;;;;;;;12.12;88.58;98503.44;5036572;28;20202;-70
2023/01/01 06:48:32;;;;;;;3.80;3.00;;;;;;;12.07;88.53;98509.41;5036587;28;20211;-69
2023/01/01 06:51:04;;;;;;;3.40;3.00;;;;;;;12.06;88.72;98502.47;5036410;28;20230;-70
2023/01/01 06:53:31;;;;;;;3.93;3.07;;;;;;;11.99;89.08;98501.72;5036405;28;20197;-69
2023/01/01 06:55:57;;;;;;;3.20;2.90;;;;;;;11.95;89.09;98507.69;5036473;28;20211;-69
2023/01/01 06:58:23;;;;;;;3.60;3.13;;;;;;;12.02;88.54;98495.94;5036136;28;20686;-70
2023/01/01 07:00:50;;;;;;;3.23;2.93;;;;;;;12.02;88.59;98498.59;5036363;28;20213;-69
2023/01/01 07:03:16;;;;;;;4.63;3.10;;;;;;;12.22;86.89;98498.44;5036212;28;20226;-70
2023/01/01 07:05:42;;;;;;;6.10;3.10;;;;;;;12.04;88.13;98503.72;5036722;28;20297;-69
2023/01/01 07:08:09;;;;;;;3.17;2.87;;;;;;;12.12;87.30;98500.78;5035698;28;20669;-70
2023/01/01 07:10:35;;;;;;;5.87;3.30;;;;;;;12.05;87.45;98505.34;5035992;28;20229;-70
2023/01/01 07:13:01;;;;;;;3.53;2.63;;;;;;;12.04;87.34;98506.38;5036102;28;20207;-69
2023/01/01 07:15:28;;;;;;;5.40;3.10;;;;;;;12.01;88.04;98506.81;5036257;28;20234;-70
2023/01/01 07:17:54;;;;;;;3.93;2.87;;;;;;;11.79;88.98;98513.53;5035983;28;20203;-70
2023/01/01 07:20:20;;;;;;;4.20;3.27;;;;;;;11.71;89.88;98527.91;5035737;28;20210;-69
2023/01/01 07:22:47;;;;;;;3.43;2.90;;;;;;;11.80;88.80;98521.31;5035335;28;20242;-70
2023/01/01 07:25:14;;;;;;;5.10;3.33;;;;;;;11.76;89.17;98514.78;5035385;28;20228;-69
2023/01/01 07:27:42;;;;;;;4.13;3.20;;;;;;;11.77;88.99;98516.44;5034839;28;20233;-70
2023/01/01 07:30:10;;;;;;;5.30;2.73;;;;;;;11.79;88.83;98511.69;5035768;28;20305;-70
2023/01/01 07:32:36;;;;;;;2.93;2.73;;;;;;;11.77;89.04;98515.59;5035607;28;20281;-69
2023/01/01 07:35:03;;;;;;;3.47;2.73;;;;;;;12.00;87.62;98516.66;5035596;28;20205;-70
2023/01/01 07:37:29;;;;;;;4.53;3.00;;;;;;;12.15;86.01;98519.00;5035426;28;20217;-69
2023/01/01 07:39:55;;;;;;;6.37;3.00;;;;;;;12.22;85.32;98522.44;5035279;28;20213;-69
2023/01/01 07:42:22;;;;;;;4.17;2.70;;;;;;;12.21;85.57;98526.13;5035128;28;20227;-69
2023/01/01 07:44:48;;;;;;;3.40;2.80;;;;;;;12.37;84.13;98539.72;5035057;28;20227;-69
2023/01/01 07:47:24;;;;;;;3.40;2.60;;;;;;;12.38;84.18;98545.91;5035945;28;20212;-69
2023/01/01 07:49:51;;;;;;;3.77;2.63;;;;;;;12.35;84.07;98539.13;5035382;28;20209;-70
2023/01/01 07:52:18;;;;;;;3.93;2.83;;;;;;;12.47;83.02;98542.72;5035287;28;20227;-70
2023/01/01 07:54:45;;;;;;;4.40;2.67;;;;;;;12.54;82.16;98550.66;5035300;28;20211;-69
2023/01/01 07:57:11;;;;;;;3.47;2.50;;;;;;;12.77;81.03;98542.84;5035001;28;20702;-69
2023/01/01 07:59:40;;;;;;;3.13;2.60;;;;;;;12.77;80.49;98546.34;5035316;28;20206;-69
2023/01/01 08:02:07;;;;;;;3.20;2.53;;;;;;;12.83;80.17;98555.28;5035024;28;20226;-69
2023/01/01 08:04:33;;;;;;;3.60;2.70;;;;;;;12.79;80.32;98573.59;5034767;28;20229;-69
2023/01/01 08:06:59;;;;;;;4.53;2.40;;;;;;;12.68;81.16;98578.84;5034688;28;20214;-70
2023/01/01 08:09:26;;;;;;;3.83;2.60;;;;;;;12.56;81.80;98576.06;5035458;28;20223;-69
2023/01/01 08:11:53;;;;;;;3.47;2.70;;;;;;;12.89;79.50;98581.09;5034654;28;20236;-69
2023/01/01 08:14:19;;;;;;;2.93;2.70;;;;;;;12.81;79.94;98584.06;5034940;28;20270;-69
2023/01/01 08:16:46;;;;;;;4.50;2.60;;;;;;;12.66;81.01;98587.06;5034938;28;20315;-69
2023/01/01 08:19:12;;;;;;;2.50;2.30;;;;;;;12.52;82.05;98590.09;5034924;28;20206;-69
2023/01/01 08:21:38;;;;;;;3.43;2.67;;;;;;;12.41;82.43;98586.25;5034200;28;20241;-70
2023/01/01 08:24:05;;;;;;;3.90;2.73;;;;;;;12.43;82.40;98586.06;5034331;28;20228;-70
2023/01/01 08:26:34;;;;;;;3.07;2.57;;;;;;;12.27;83.91;98592.72;5034708;28;20211;-70
2023/01/01 08:29:06;;;;;;;3.83;2.60;;;;;;;12.47;82.04;98593.38;5035356;28;20584;-70
2023/01/01 08:31:33;;;;;;;4.43;2.40;;;;;;;12.28;83.24;98588.19;5034556;28;20228;-70
2023/01/01 08:33:59;;;;;;;4.07;2.40;;;;;;;12.22;83.73;98595.22;5035047;28;20204;-70
2023/01/01 08:36:25;;;;;;;3.77;2.73;;;;;;;12.14;85.01;98598.16;5034211;28;20213;-70
2023/01/01 08:38:52;;;;;;;4.57;2.63;;;;;;;12.19;84.52;98594.81;5034270;28;20208;-70
2023/01/01 08:41:18;;;;;;;4.77;2.30;;;;;;;12.16;84.94;98600.59;5034095;28;20236;-70
2023/01/01 08:43:44;;;;;;;4.60;2.73;;;;;;;12.32;83.74;98589.41;5034296;28;20229;-69
2023/01/01 08:46:11;;;;;;;4.20;2.63;;;;;;;12.52;82.77;98593.53;5033975;28;20324;-70
2023/01/01 08:48:37;;;;;;;2.60;2.23;;;;;;;12.51;82.68;98599.09;5034165;28;20640;-70
2023/01/01 08:51:04;;;;;;;4.10;2.87;;;;;;;12.76;80.90;98597.25;5034102;28;20248;-70
2023/01/01 08:53:31;;;;;;;4.47;2.40;;;;;;;12.68;81.42;98606.34;5034059;28;20215;-70
2023/01/01 08:56:03;;;;;;;3.10;2.47;;;;;;;12.71;81.36;98605.88;5033844;28;20614;-70
2023/01/01 08:58:30;;;;;;;3.17;2.47;;;;;;;12.72;81.65;98607.53;5034184;28;20192;-70
2023/01/01 09:00:58;;;;;;;4.10;2.60;;;;;;;12.77;81.02;98605.03;5033959;28;20227;-70
2023/01/01 09:03:25;;;;;;;3.07;2.50;;;;;;;12.83;80.67;98598.81;5033922;28;20229;-69
2023/01/01 09:05:52;;;;;;;3.33;2.60;;;;;;;12.80;81.13;98596.56;5033854;28;20209;-70
2023/01/01 09:08:19;;;;;;;3.83;2.57;;;;;;;12.96;79.74;98600.53;5033544;28;20687;-70
2023/01/01 09:10:45;;;;;;;5.33;2.67;;;;;;;12.96;79.68;98604.03;5033809;28;20215;-69
2023/01/01 09:13:13;;;;;;;3.00;2.67;;;;;;;12.94;80.48;98614.09;5033617;28;20214;-70
2023/01/01 09:15:41;;;;;;;4.40;2.93;;;;;;;12.98;79.33;98607.31;5033864;28;20209;-70
2023/01/01 09:18:08;;;;;;;2.53;2.33;;;;;;;13.02;78.81;98605.03;5033777;28;20213;-70
2023/01/01 09:20:34;;;;;;;3.63;2.40;;;;;;;13.01;79.39;98608.72;5033809;28;20204;-70
2023/01/01 09:23:01;;;;;;;3.27;2.50;;;;;;;13.05;78.79;98610.75;5033198;28;20210;-70
2023/01/01 09:25:27;;;;;;;4.47;2.70;;;;;;;13.03;78.60;98612.78;5033326;28;20245;-70
2023/01/01 09:28:01;;;;;;;6.33;2.73;;;;;;;13.12;79.32;98611.47;5033494;28;20580;-70
2023/01/01 09:30:28;;;;;;;4.00;3.10;;;;;;;13.18;77.85;98602.59;5033676;28;20200;-70
2023/01/01 09:32:55;;;;;;;3.73;2.33;;;;;;;13.13;78.92;98601.63;5033443;28;20248;-70
2023/01/01 09:35:21;;;;;;;3.50;2.60;;;;;;;13.21;77.78;98617.34;5033491;28;20206;-70
2023/01/01 09:37:47;;;;;;;3.33;2.53;;;;;;;13.26;77.17;98613.00;5033161;28;20216;-70
2023/01/01 09:40:23;;;;;;;3.20;2.60;;;;;;;13.44;76.59;98610.31;5033272;28;20213;-70
2023/01/01 09:42:58;;;;;;;3.93;2.63;;;;;;;13.47;75.47;98612.50;5033235;28;20248;-70
2023/01/01 09:45:29;;;;;;;3.53;2.30;;;;;;;13.43;76.46;98623.88;5033312;28;20214;-70
2023/01/01 09:48:00;;;;;;;2.77;2.23;;;;;;;13.43;76.33;98622.00;5033277;28;20190;-70
2023/01/01 09:50:37;;;;;;;4.37;2.63;;;;;;;13.44;76.10;98623.66;5031060;28;20638;-70
2023/01/01 09:53:17;;;;;;;3.20;2.57;;;;;;;13.53;75.74;98624.19;5033329;28;20224;-70
2023/01/01 09:55:52;;;;;;;5.20;2.77;;;;;;;13.54;75.73;98623.94;5032972;28;20610;-69
2023/01/01 09:58:24;;;;;;;4.93;2.43;;;;;;;13.63;75.49;98630.63;5032883;28;20284;-69
2023/01/01 10:00:55;;;;;;;3.30;2.30;;;;;;;13.72;75.15;98623.09;5033486;28;20654;-70
2023/01/01 10:03:39;;;;;;;3.07;2.57;;;;;;;13.80;74.67;98626.28;5032509;28;20634;-70
2023/01/01 10:06:27;;;;;;;4.10;2.30;;;;;;;14.03;73.95;98629.06;5031907;28;20210;-70
2023/01/01 10:09:32;;;;;;;2.80;2.27;;;;;;;14.06;73.41;98627.81;5033178;28;20201;-70
2023/01/01 10:12:07;;;;;;;3.20;2.67;;;;;;;14.15;72.68;98615.75;5031864;28;20244;-70
2023/01/01 10:14:45;;;;;;;4.00;2.60;;;;;;;14.20;71.99;98629.25;5032817;28;20551;-70
2023/01/01 10:17:31;;;;;;;6.17;2.67;;;;;;;14.36;71.45;98623.25;5033012;28;20185;-70
2023/01/01 10:20:02;;;;;;;4.10;2.77;;;;;;;14.39;71.23;98607.56;5031841;28;20198;-69
2023/01/01 10:22:35;;;;;;;7.40;4.90;;;;;;;14.51;70.76;98604.94;5032684;28;20241;-69
2023/01/01 10:25:06;;;;;;;5.87;3.50;;;;;;;14.54;70.38;98599.94;5032691;28;20215;-70
2023/01/01 10:27:48;;;;;;;3.97;2.33;;;;;;;14.58;71.20;98605.63;5032989;28;20194;-70
2023/01/01 10:30:18;;;;;;;5.40;2.90;;;;;;;14.60;71.50;98609.69;5032741;28;20637;-70
2023/01/01 10:32:47;;;;;;;5.50;3.57;;;;;;;14.75;69.21;98604.69;5032671;28;20240;-70
2023/01/01 10:35:18;;;;;;;3.93;2.13;;;;;;;14.77;69.50;98607.97;5032989;28;20206;-69
2023/01/01 10:37:45;;;;;;;2.47;2.13;;;;;;;14.76;69.74;98606.34;5032949;28;20186;-70
2023/01/01 10:40:20;;;;;;;4.03;2.27;;;;;;;14.71;70.37;98602.72;5032801;28;20293;-69
2023/01/01 10:42:59;;;;;;;5.90;2.60;;;;;;;14.78;70.05;98604.25;5032316;28;20740;-69
2023/01/01 10:45:34;;;;;;;5.23;2.10;;;;;;;14.96;69.43;98598.78;5032718;28;20220;-70
2023/01/01 10:48:23;;;;;;;4.83;2.53;;;;;;;14.93;68.61;98598.44;5032462;28;20681;-70
2023/01/01 10:51:00;;;;;;;15.53;8.77;;;;;;;15.02;68.06;98599.72;5032648;28;20199;-70
2023/01/01 10:53:35;;;;;;;4.60;2.80;;;;;;;14.99;68.73;98605.53;5033333;28;20194;-70
2023/01/01 10:56:05;;;;;;;3.70;2.47;;;;;;;15.03;68.38;98596.81;5032254;28;20212;-70
2023/01/01 10:58:50;;;;;;;3.73;2.17;;;;;;;15.10;67.90;98599.38;5032737;28;20228;-70
2023/01/01 11:01:29;;;;;;;5.47;2.80;;;;;;;15.24;67.70;98601.53;5032235;28;20241;-70
2023/01/01 11:03:57;;;;;;;3.50;2.20;;;;;;;15.21;67.58;98596.69;5036166;28;20190;-70
2023/01/01 11:06:38;;;;;;;6.17;2.60;;;;;;;15.30;67.43;98589.91;5036165;28;20206;-70
2023/01/01 11:09:30;;;;;;;5.10;2.13;;;;;;;15.20;68.43;98586.19;5036045;28;20201;-70
2023/01/01 11:12:06;;;;;;;3.00;2.03;;;;;;;15.29;67.35;98588.25;5036045;28;20246;-70
2023/01/01 11:14:43;;;;;;;4.37;2.27;;;;;;;15.25;67.30;98576.38;5035999;28;20561;-69
2023/01/01 11:17:10;;;;;;;3.27;2.40;;;;;;;15.33;67.35;98570.66;5034329;28;20638;-70
2023/01/01 11:19:39;;;;;;;4.33;2.60;;;;;;;15.43;66.84;98573.56;5035365;28;20658;-70
2023/01/01 11:22:07;;;;;;;3.43;2.60;;;;;;;15.35;67.57;98576.66;5035399;28;20598;-70
2023/01/01 11:24:39;;;;;;;5.17;2.20;;;;;;;15.40;66.86;98578.59;5035270;28;20233;-70
2023/01/01 11:27:23;;;;;;;4.47;2.40;;;;;;;15.54;66.07;98578.09;5035667;28;20562;-70
2023/01/01 11:29:50;;;;;;;3.37;2.20;;;;;;;15.68;65.14;98571.41;5035642;28;20705;-69
2023/01/01 11:32:25;;;;;;;4.47;2.17;;;;;;;15.68;64.80;98568.72;5035146;28;20233;-70
2023/01/01 11:35:01;;;;;;;4.77;2.40;;;;;;;15.67;65.57;98574.31;5035543;28;20189;-70
2023/01/01 11:37:32;;;;;;;3.10;2.23;;;;;;;15.77;64.80;98558.44;5034217;28;20205;-70
2023/01/01 11:40:00;;;;;;;3.53;2.60;;;;;;;15.75;64.89;98553.31;5034939;28;20633;-70
2023/01/01 11:42:30;;;;;;;3.00;2.27;;;;;;;15.66;64.86;98541.38;5035196;28;20226;-70
2023/01/01 11:45:21;;;;;;;4.87;2.13;;;;;;;15.71;65.34;98533.41;5035241;28;20237;-70
2023/01/01 11:47:55;;;;;;;3.70;2.53;;;;;;;15.70;64.76;98537.13;5035058;28;20685;-70